Time;durP1;ratioP1;P1;durP2;ratioP2;P2;SDS_P1;SDS_P2;PMS_P1;PMS_P2;Temp;Humidity;BMP_temperature;BMP_pressure;BME280_temperature;BME280_humidity;BME280_pressure;Samples;Min_cycle;Max_cycle;Signal;HPM_P1;HPM_P2
2021/07/02 00:01:24;;;;;;;0.40;0.40;;;19.50;99.90;;;;;;5008735;28;20724;-71
2021/07/02 00:03:51;;;;;;;0.50;0.50;;;19.60;99.90;;;;;;5011808;28;20231;-71
2021/07/02 00:06:18;;;;;;;0.50;0.50;;;19.60;99.90;;;;;;5009971;28;20223;-72
2021/07/02 00:08:45;;;;;;;0.50;0.50;;;19.60;99.90;;;;;;5010295;28;20666;-71
2021/07/02 00:11:14;;;;;;;0.40;0.40;;;19.60;99.90;;;;;;5008364;28;20220;-71
2021/07/02 00:13:41;;;;;;;0.40;0.40;;;19.50;99.90;;;;;;5008577;28;20726;-73
2021/07/02 00:16:08;;;;;;;0.40;0.40;;;19.50;99.90;;;;;;5008788;28;20232;-73
2021/07/02 00:18:35;;;;;;;0.40;0.40;;;19.40;99.90;;;;;;5009589;28;20200;-71
2021/07/02 00:21:02;;;;;;;0.40;0.40;;;19.40;99.90;;;;;;5007468;28;20199;-71
2021/07/02 00:23:29;;;;;;;0.45;0.45;;;19.30;99.90;;;;;;5015183;28;20239;-71
2021/07/02 00:25:56;;;;;;;0.50;0.50;;;19.30;99.90;;;;;;5011953;28;20212;-71
2021/07/02 00:28:25;;;;;;;0.50;0.50;;;19.20;99.90;;;;;;5006476;28;20196;-71
2021/07/02 00:30:52;;;;;;;0.50;0.50;;;19.20;99.90;;;;;;5008219;28;20224;-71
2021/07/02 00:33:20;;;;;;;0.40;0.40;;;19.20;99.90;;;;;;5008072;28;20224;-70
2021/07/02 00:35:47;;;;;;;0.40;0.40;;;19.20;99.90;;;;;;5011990;28;20196;-72
2021/07/02 00:38:14;;;;;;;0.40;0.40;;;19.20;99.90;;;;;;5003630;28;20208;-71
2021/07/02 00:40:41;;;;;;;0.40;0.40;;;19.20;99.90;;;;;;5008818;28;20215;-72
2021/07/02 00:45:40;;;;;;;0.52;0.52;;;19.20;99.90;;;;;;5004643;28;20212;-74
2021/07/02 00:48:07;;;;;;;0.52;0.52;;;19.10;99.90;;;;;;5009501;28;20231;-74
2021/07/02 00:50:34;;;;;;;0.40;0.40;;;19.10;99.90;;;;;;5012804;28;20220;-74
2021/07/02 00:53:04;;;;;;;0.50;0.50;;;19.10;99.90;;;;;;5013997;28;20227;-74
2021/07/02 00:55:31;;;;;;;0.63;0.63;;;19.00;99.90;;;;;;5009942;28;20231;-74
2021/07/02 00:57:59;;;;;;;0.40;0.40;;;19.00;99.90;;;;;;5017056;28;20600;-74
2021/07/02 01:00:26;;;;;;;0.60;0.60;;;19.00;99.90;;;;;;5006397;28;20192;-75
2021/07/02 01:02:55;;;;;;;0.63;0.63;;;19.00;99.90;;;;;;5008229;28;20235;-74
2021/07/02 01:05:22;;;;;;;0.60;0.60;;;19.00;99.90;;;;;;5014411;28;20227;-74
2021/07/02 01:07:49;;;;;;;0.57;0.57;;;19.00;99.90;;;;;;5010289;28;20224;-74
2021/07/02 01:10:18;;;;;;;0.60;0.60;;;19.00;99.90;;;;;;5011486;28;20871;-74
2021/07/02 01:12:45;;;;;;;0.50;0.50;;;18.90;99.90;;;;;;5011318;28;20314;-74
2021/07/02 01:15:23;;;;;;;0.47;0.47;;;18.90;99.90;;;;;;5017641;28;20231;-74
2021/07/02 01:17:50;;;;;;;0.45;0.45;;;18.90;99.90;;;;;;5010568;28;20227;-74
2021/07/02 01:20:19;;;;;;;0.40;0.40;;;18.90;99.90;;;;;;5009024;28;20192;-74
2021/07/02 01:22:47;;;;;;;0.40;0.40;;;18.80;99.90;;;;;;5006822;28;20216;-74
2021/07/02 01:25:14;;;;;;;0.40;0.40;;;18.80;99.90;;;;;;5009918;28;20231;-74
2021/07/02 01:27:42;;;;;;;0.40;0.40;;;18.80;99.90;;;;;;5010852;28;20884;-73
2021/07/02 01:30:11;;;;;;;0.40;0.40;;;18.80;99.90;;;;;;5010698;28;20223;-74
2021/07/02 01:32:38;;;;;;;0.50;0.50;;;18.80;99.90;;;;;;5012509;28;20227;-74
2021/07/02 01:35:06;;;;;;;0.60;0.60;;;18.80;99.90;;;;;;5009188;28;20223;-73
2021/07/02 01:37:33;;;;;;;0.60;0.60;;;18.70;99.90;;;;;;5010598;28;20222;-74
2021/07/02 01:40:02;;;;;;;0.50;0.50;;;18.70;99.90;;;;;;5009956;28;20199;-75
2021/07/02 01:42:29;;;;;;;0.47;0.47;;;18.70;99.90;;;;;;5008523;28;20216;-73
2021/07/02 01:44:56;;;;;;;0.40;0.40;;;18.70;99.90;;;;;;5024577;28;20230;-73
2021/07/02 01:47:24;;;;;;;0.50;0.50;;;18.70;99.90;;;;;;5010842;28;20235;-74
2021/07/02 01:49:51;;;;;;;0.68;0.60;;;18.70;99.90;;;;;;5008643;28;20216;-75
2021/07/02 01:52:18;;;;;;;0.40;0.40;;;18.60;99.90;;;;;;5009249;28;20869;-74
2021/07/02 01:54:45;;;;;;;0.65;0.65;;;18.60;99.90;;;;;;5011753;28;20220;-73
2021/07/02 01:57:21;;;;;;;1.02;0.50;;;18.60;99.90;;;;;;5007857;28;20214;-74
2021/07/02 01:59:48;;;;;;;0.50;0.50;;;18.50;99.90;;;;;;5008919;28;20203;-74
2021/07/02 02:02:16;;;;;;;0.50;0.50;;;18.50;99.90;;;;;;5005576;28;20224;-74
2021/07/02 02:04:43;;;;;;;0.60;0.60;;;18.50;99.90;;;;;;5013472;28;20318;-74
2021/07/02 02:07:10;;;;;;;0.70;0.70;;;18.50;99.90;;;;;;5010010;28;20227;-74
2021/07/02 02:09:37;;;;;;;0.50;0.50;;;18.50;99.90;;;;;;5007028;28;20195;-74
2021/07/02 02:12:06;;;;;;;0.60;0.60;;;18.50;99.90;;;;;;5012498;28;20220;-74
2021/07/02 02:14:34;;;;;;;0.50;0.50;;;18.50;99.90;;;;;;5013635;28;20224;-73
2021/07/02 02:17:02;;;;;;;0.43;0.43;;;18.50;99.90;;;;;;5010543;28;20220;-72
2021/07/02 02:19:29;;;;;;;0.50;0.50;;;18.60;99.90;;;;;;5011274;28;20214;-74
2021/07/02 02:21:56;;;;;;;0.60;0.57;;;18.50;99.90;;;;;;5003540;28;20223;-73
2021/07/02 02:24:23;;;;;;;0.52;0.52;;;18.50;99.90;;;;;;5007327;28;20215;-73
2021/07/02 02:26:50;;;;;;;0.50;0.50;;;18.50;99.90;;;;;;5008569;28;20216;-74
2021/07/02 02:29:17;;;;;;;0.55;0.55;;;18.60;99.90;;;;;;5007812;28;20600;-75
2021/07/02 02:31:45;;;;;;;0.60;0.60;;;18.60;99.90;;;;;;5004232;28;20227;-74
2021/07/02 02:34:13;;;;;;;0.50;0.50;;;18.60;99.90;;;;;;5011225;28;20227;-73
2021/07/02 02:36:40;;;;;;;0.40;0.40;;;18.60;99.90;;;;;;5016529;28;20219;-74
2021/07/02 02:39:07;;;;;;;3.40;0.50;;;18.60;99.90;;;;;;5012539;28;20204;-73
2021/07/02 02:41:34;;;;;;;0.40;0.40;;;18.70;99.90;;;;;;5011814;28;20188;-74
2021/07/02 02:44:02;;;;;;;0.50;0.50;;;18.70;99.90;;;;;;5014339;28;20449;-74
2021/07/02 02:46:29;;;;;;;0.50;0.50;;;18.70;99.90;;;;;;5011611;28;20207;-74
2021/07/02 02:48:58;;;;;;;0.47;0.47;;;18.70;99.90;;;;;;5014907;28;20192;-74
2021/07/02 02:51:25;;;;;;;0.52;0.52;;;18.70;99.90;;;;;;5017706;28;20876;-74
2021/07/02 02:53:52;;;;;;;0.77;0.60;;;18.70;99.90;;;;;;5011834;28;20577;-74
2021/07/02 02:56:19;;;;;;;0.50;0.50;;;18.70;99.90;;;;;;5011078;28;20208;-74
2021/07/02 02:58:47;;;;;;;0.40;0.40;;;18.70;99.90;;;;;;5012661;28;20694;-74
2021/07/02 03:01:14;;;;;;;0.40;0.40;;;18.70;99.90;;;;;;5009751;28;20669;-74
2021/07/02 03:03:41;;;;;;;0.60;0.60;;;18.70;99.90;;;;;;5010508;28;20307;-74
2021/07/02 03:06:09;;;;;;;0.47;0.47;;;18.70;99.90;;;;;;5012629;28;20212;-74
2021/07/02 03:08:37;;;;;;;0.50;0.50;;;18.70;99.90;;;;;;5009106;28;20222;-74
2021/07/02 03:11:05;;;;;;;0.90;0.50;;;18.70;99.90;;;;;;5013984;28;20789;-74
2021/07/02 03:13:32;;;;;;;0.50;0.50;;;18.70;99.90;;;;;;5012834;28;20227;-74
2021/07/02 03:15:59;;;;;;;0.60;0.60;;;18.70;99.90;;;;;;5013526;28;20197;-73
2021/07/02 03:18:27;;;;;;;0.55;0.55;;;18.70;99.90;;;;;;5016030;28;20228;-74
2021/07/02 03:20:54;;;;;;;0.60;0.60;;;18.70;99.90;;;;;;5006154;28;20186;-75
2021/07/02 03:23:23;;;;;;;0.47;0.47;;;18.70;99.90;;;;;;5013755;28;20230;-74
2021/07/02 03:25:50;;;;;;;0.60;0.60;;;18.60;99.90;;;;;;5009800;28;20573;-74
2021/07/02 03:28:17;;;;;;;0.50;0.50;;;18.60;99.90;;;;;;5012459;28;20231;-74
2021/07/02 03:30:44;;;;;;;0.50;0.50;;;18.60;99.90;;;;;;5012694;28;20243;-74
2021/07/02 03:33:11;;;;;;;0.50;0.50;;;18.60;99.90;;;;;;5016874;28;20220;-74
2021/07/02 03:35:38;;;;;;;0.68;0.68;;;18.60;99.90;;;;;;5011708;28;20541;-74
2021/07/02 03:38:06;;;;;;;0.40;0.40;;;18.50;99.90;;;;;;5012274;28;20232;-74
2021/07/02 03:40:34;;;;;;;0.70;0.60;;;18.50;99.90;;;;;;5009991;28;20253;-74
2021/07/02 03:43:01;;;;;;;0.35;0.35;;;18.50;99.90;;;;;;5010595;28;20243;-74
2021/07/02 03:45:28;;;;;;;0.50;0.50;;;18.50;99.90;;;;;;5013752;28;20227;-74
2021/07/02 03:47:55;;;;;;;0.45;0.45;;;18.50;99.90;;;;;;5009657;28;20235;-74
2021/07/02 03:50:23;;;;;;;0.60;0.60;;;18.50;99.90;;;;;;5013968;28;20196;-74
2021/07/02 03:52:50;;;;;;;0.60;0.60;;;18.50;99.90;;;;;;5013581;28;20212;-74
2021/07/02 03:55:17;;;;;;;0.60;0.60;;;18.50;99.90;;;;;;5014735;28;20219;-74
2021/07/02 03:57:46;;;;;;;0.50;0.50;;;18.50;99.90;;;;;;5010171;28;20216;-74
2021/07/02 04:00:14;;;;;;;0.55;0.55;;;18.50;99.90;;;;;;5012032;28;20667;-77
2021/07/02 04:02:41;;;;;;;0.50;0.50;;;18.50;99.90;;;;;;5033793;28;20224;-77
2021/07/02 04:05:09;;;;;;;1.10;0.65;;;18.50;99.90;;;;;;5039877;28;20227;-76
2021/07/02 04:07:36;;;;;;;0.60;0.60;;;18.50;99.90;;;;;;5037729;28;20212;-77
2021/07/02 04:10:04;;;;;;;0.60;0.60;;;18.50;99.90;;;;;;5016669;28;20219;-76
2021/07/02 04:12:31;;;;;;;0.52;0.52;;;18.50;99.90;;;;;;5012122;28;20215;-77
2021/07/02 04:15:00;;;;;;;0.60;0.60;;;18.60;99.90;;;;;;5012977;28;20220;-76
2021/07/02 04:17:27;;;;;;;0.70;0.70;;;18.60;99.90;;;;;;5009290;28;20227;-76
2021/07/02 04:19:54;;;;;;;0.63;0.63;;;18.70;99.90;;;;;;5011444;28;20203;-76
2021/07/02 04:22:22;;;;;;;0.70;0.70;;;18.70;99.90;;;;;;5012484;28;20213;-76
2021/07/02 04:24:49;;;;;;;0.57;0.57;;;18.70;99.90;;;;;;5005522;28;20607;-76
2021/07/02 04:27:18;;;;;;;0.50;0.50;;;18.80;99.90;;;;;;5020549;28;20216;-76
2021/07/02 04:29:45;;;;;;;0.40;0.40;;;18.90;99.90;;;;;;5009502;28;20566;-75
2021/07/02 04:32:14;;;;;;;1.10;0.60;;;19.00;99.90;;;;;;5012319;28;20235;-77
2021/07/02 04:34:41;;;;;;;0.30;0.30;;;19.00;99.90;;;;;;5011848;28;20216;-76
2021/07/02 04:37:08;;;;;;;0.85;0.60;;;19.10;99.90;;;;;;5010759;28;20220;-76
2021/07/02 04:39:35;;;;;;;0.52;0.52;;;19.20;99.90;;;;;;5006529;28;20284;-76
2021/07/02 04:42:03;;;;;;;0.50;0.50;;;19.30;99.90;;;;;;5001884;28;20227;-76
2021/07/02 04:44:30;;;;;;;0.60;0.60;;;19.40;99.90;;;;;;5009283;28;20254;-76
2021/07/02 04:46:57;;;;;;;0.60;0.60;;;19.40;99.90;;;;;;5010605;28;20431;-76
2021/07/02 04:49:25;;;;;;;0.70;0.70;;;19.40;99.90;;;;;;5006757;28;20205;-76
2021/07/02 04:51:52;;;;;;;0.52;0.52;;;19.40;99.90;;;;;;5005733;28;20585;-76
2021/07/02 04:54:20;;;;;;;1.67;0.65;;;19.50;99.90;;;;;;5012069;28;20257;-76
2021/07/02 04:56:47;;;;;;;0.50;0.50;;;19.60;99.90;;;;;;5007053;28;20199;-76
2021/07/02 04:59:15;;;;;;;0.60;0.60;;;19.60;99.90;;;;;;5014543;28;20200;-76
2021/07/02 05:01:42;;;;;;;0.50;0.50;;;19.80;99.90;;;;;;5005087;28;20211;-76
2021/07/02 05:04:09;;;;;;;0.60;0.60;;;19.80;99.90;;;;;;5011489;28;20236;-75
2021/07/02 05:06:39;;;;;;;0.50;0.50;;;19.80;99.90;;;;;;5008885;28;20212;-76
2021/07/02 05:09:06;;;;;;;0.50;0.50;;;20.00;99.90;;;;;;5007833;28;20220;-76
2021/07/02 05:11:34;;;;;;;1.88;0.80;;;20.10;99.90;;;;;;5013103;28;20743;-76
2021/07/02 05:14:03;;;;;;;0.60;0.60;;;20.20;99.90;;;;;;5008836;28;20570;-76
2021/07/02 05:21:11;;;;;;;0.82;0.82;;;19.90;99.90;;;;;;5126504;27;20296;-75
2021/07/02 05:23:38;;;;;;;0.70;0.70;;;19.70;99.90;;;;;;5131608;27;20307;-75
2021/07/02 05:26:05;;;;;;;1.02;0.88;;;19.60;99.90;;;;;;5118180;27;20224;-75
2021/07/02 05:28:35;;;;;;;1.67;0.80;;;19.50;99.90;;;;;;5113810;28;20197;-77
2021/07/02 05:31:02;;;;;;;1.10;0.73;;;19.60;99.90;;;;;;5115554;28;20251;-76
2021/07/02 05:33:29;;;;;;;0.80;0.80;;;19.80;99.90;;;;;;5107321;28;20224;-75
2021/07/02 05:35:57;;;;;;;0.85;0.85;;;20.00;99.90;;;;;;5100653;28;20237;-76
2021/07/02 05:38:25;;;;;;;1.77;0.80;;;20.10;99.90;;;;;;5092039;28;20207;-76
2021/07/02 05:40:55;;;;;;;1.02;0.85;;;20.20;99.90;;;;;;5099117;27;20318;-76
2021/07/02 05:43:22;;;;;;;0.90;0.90;;;20.30;99.90;;;;;;5108378;28;20197;-76
2021/07/02 05:45:50;;;;;;;0.80;0.80;;;20.40;99.90;;;;;;5101329;28;20213;-76
2021/07/02 05:48:18;;;;;;;1.35;0.70;;;20.40;99.90;;;;;;5100844;28;20208;-77
2021/07/02 05:50:46;;;;;;;0.90;0.90;;;20.50;99.90;;;;;;5097674;28;20282;-75
2021/07/02 05:53:13;;;;;;;0.70;0.70;;;20.50;99.90;;;;;;5100608;28;20205;-76
2021/07/02 05:55:41;;;;;;;0.60;0.60;;;20.60;99.90;;;;;;5099056;28;20274;-75
2021/07/02 05:58:09;;;;;;;0.93;0.75;;;20.70;99.90;;;;;;5104104;28;20200;-75
2021/07/02 06:00:36;;;;;;;1.95;0.90;;;20.70;99.90;;;;;;5106234;28;20231;-75
2021/07/02 06:03:03;;;;;;;1.30;0.82;;;20.70;99.90;;;;;;5102268;28;20196;-76
2021/07/02 06:05:30;;;;;;;0.85;0.85;;;20.80;99.90;;;;;;5109035;27;20718;-76
2021/07/02 06:07:58;;;;;;;0.80;0.80;;;20.80;99.90;;;;;;5136372;27;20224;-76
2021/07/02 06:10:26;;;;;;;0.70;0.70;;;20.90;99.90;;;;;;5118449;27;20216;-76
2021/07/02 06:12:55;;;;;;;1.10;1.10;;;20.90;99.90;;;;;;5122566;27;20207;-75
2021/07/02 06:15:22;;;;;;;1.00;0.80;;;21.00;99.90;;;;;;5121539;27;20296;-74
2021/07/02 06:17:51;;;;;;;2.13;0.80;;;21.10;99.90;;;;;;5126698;27;20276;-77
2021/07/02 06:20:21;;;;;;;0.70;0.70;;;21.20;99.90;;;;;;5117669;27;20258;-75
2021/07/02 06:22:48;;;;;;;1.38;0.70;;;21.30;99.90;;;;;;5124548;27;20235;-74
2021/07/02 06:25:15;;;;;;;0.80;0.80;;;21.50;99.90;;;;;;5130839;27;20219;-76
2021/07/02 06:27:43;;;;;;;0.70;0.70;;;21.60;99.90;;;;;;5125844;27;20196;-76
2021/07/02 06:30:13;;;;;;;0.80;0.80;;;21.70;99.90;;;;;;5122347;27;20220;-76
2021/07/02 06:32:40;;;;;;;0.80;0.80;;;21.70;99.90;;;;;;5108851;27;20492;-76
2021/07/02 06:35:08;;;;;;;1.35;0.70;;;21.70;99.90;;;;;;5109479;27;20262;-76
2021/07/02 06:37:35;;;;;;;1.38;0.70;;;21.70;99.90;;;;;;5108023;27;20685;-75
2021/07/02 06:40:03;;;;;;;0.90;0.90;;;21.70;99.90;;;;;;5109781;27;20889;-76
2021/07/02 06:42:30;;;;;;;0.80;0.80;;;21.90;99.90;;;;;;5109721;27;20201;-74
2021/07/02 06:44:57;;;;;;;0.80;0.80;;;21.90;99.90;;;;;;5096876;22;20434;-71
2021/07/02 06:47:26;;;;;;;0.80;0.70;;;22.10;99.90;;;;;;5063991;28;20525;-72
2021/07/02 06:49:53;;;;;;;0.77;0.70;;;22.20;99.90;;;;;;5069507;28;20195;-70
2021/07/02 06:52:20;;;;;;;1.10;0.98;;;22.20;99.90;;;;;;5070486;28;20213;-71
2021/07/02 06:54:47;;;;;;;0.90;0.90;;;22.20;99.90;;;;;;5055462;28;20688;-71
2021/07/02 06:57:15;;;;;;;0.68;0.68;;;22.20;99.90;;;;;;5043162;28;20230;-71
2021/07/02 06:59:42;;;;;;;0.93;0.88;;;22.30;99.90;;;;;;5045842;28;20290;-70
2021/07/02 07:02:11;;;;;;;1.40;0.95;;;22.20;99.90;;;;;;5043942;28;20222;-70
2021/07/02 07:04:40;;;;;;;0.85;0.77;;;22.20;99.90;;;;;;5045401;28;20218;-71
2021/07/02 07:07:09;;;;;;;0.70;0.70;;;22.30;99.90;;;;;;5044996;28;20260;-70
2021/07/02 07:09:37;;;;;;;0.80;0.77;;;22.50;99.90;;;;;;5044197;28;20282;-71
2021/07/02 07:12:06;;;;;;;0.80;0.80;;;22.60;99.90;;;;;;5045137;28;20264;-70
2021/07/02 07:14:33;;;;;;;2.13;0.80;;;22.60;99.90;;;;;;5047319;28;20253;-70
2021/07/02 07:17:01;;;;;;;1.67;0.85;;;22.60;99.90;;;;;;5052339;28;20718;-70
2021/07/02 07:19:29;;;;;;;4.80;0.90;;;22.70;99.90;;;;;;5041136;28;20213;-71
2021/07/02 07:21:58;;;;;;;1.15;0.80;;;22.80;99.90;;;;;;5045214;28;20320;-70
2021/07/02 07:24:25;;;;;;;0.98;0.77;;;22.90;99.90;;;;;;5045249;28;20280;-71
2021/07/02 07:26:52;;;;;;;1.15;1.05;;;22.90;99.90;;;;;;5035870;28;20227;-71
2021/07/02 07:29:19;;;;;;;0.90;0.90;;;23.00;99.90;;;;;;5046948;28;20206;-70
2021/07/02 07:31:47;;;;;;;2.45;0.90;;;23.10;99.90;;;;;;5039248;28;20219;-71
2021/07/02 07:34:22;;;;;;;0.75;0.75;;;23.20;99.90;;;;;;5047984;28;20215;-71
2021/07/02 07:36:54;;;;;;;0.80;0.80;;;23.30;99.90;;;;;;5061292;28;20222;-70
2021/07/02 07:39:23;;;;;;;1.02;0.95;;;23.50;99.90;;;;;;5042319;28;20201;-71
2021/07/02 07:41:50;;;;;;;0.93;0.85;;;23.60;99.90;;;;;;5048761;28;20226;-71
2021/07/02 07:44:17;;;;;;;1.15;0.90;;;23.60;99.90;;;;;;5043881;28;20230;-71
2021/07/02 07:46:44;;;;;;;2.05;0.77;;;23.60;99.90;;;;;;5038938;28;20222;-71
2021/07/02 07:49:11;;;;;;;0.82;0.70;;;23.60;99.90;;;;;;5041940;28;20195;-72
2021/07/02 07:51:45;;;;;;;1.10;0.88;;;23.60;99.90;;;;;;5050073;28;20723;-71
2021/07/02 07:54:12;;;;;;;2.17;0.90;;;23.80;99.90;;;;;;5043426;28;20230;-72
2021/07/02 07:56:49;;;;;;;1.33;0.90;;;24.00;99.90;;;;;;5045369;28;20717;-71
2021/07/02 07:59:17;;;;;;;0.73;0.70;;;24.20;99.90;;;;;;5042284;28;20207;-71
2021/07/02 08:01:44;;;;;;;0.80;0.80;;;24.30;99.90;;;;;;5046821;28;20219;-71
2021/07/02 08:04:14;;;;;;;0.70;0.70;;;24.30;99.90;;;;;;5044961;28;20215;-70
2021/07/02 08:06:41;;;;;;;0.80;0.80;;;24.20;99.90;;;;;;5041968;28;20692;-71
2021/07/02 08:09:08;;;;;;;0.80;0.80;;;24.20;99.90;;;;;;5045262;28;20281;-71
2021/07/02 08:11:36;;;;;;;0.60;0.60;;;24.30;99.90;;;;;;5045890;28;20232;-71
2021/07/02 08:14:05;;;;;;;0.80;0.80;;;24.50;99.90;;;;;;5041038;28;20214;-71
2021/07/02 08:16:33;;;;;;;0.70;0.70;;;24.60;99.90;;;;;;5041812;28;21964;-71
2021/07/02 08:19:00;;;;;;;0.82;0.80;;;24.70;99.90;;;;;;5043646;28;20206;-71
2021/07/02 08:21:28;;;;;;;1.88;0.90;;;24.80;99.90;;;;;;5047869;28;20214;-71
2021/07/02 08:23:55;;;;;;;1.23;0.70;;;25.00;99.90;;;;;;5046032;28;20226;-70
2021/07/02 08:26:22;;;;;;;1.85;1.00;;;25.20;99.90;;;;;;5043924;28;20223;-71
2021/07/02 08:31:35;;;;;;;3.15;0.98;;;25.30;99.90;;;;;;5048397;28;20226;-71
2021/07/02 08:34:04;;;;;;;1.23;0.80;;;25.20;99.90;;;;;;5041757;28;20223;-72
2021/07/02 08:36:31;;;;;;;0.85;0.82;;;25.10;99.90;;;;;;5037866;28;20222;-72
2021/07/02 08:38:58;;;;;;;0.73;0.63;;;25.20;99.90;;;;;;5041874;28;20206;-72
2021/07/02 08:41:26;;;;;;;0.70;0.70;;;25.20;99.90;;;;;;5043340;28;20323;-71
2021/07/02 08:43:53;;;;;;;1.77;0.68;;;25.30;99.90;;;;;;5043187;28;20211;-71
2021/07/02 08:46:22;;;;;;;0.68;0.60;;;25.60;99.90;;;;;;5044910;28;20222;-71
2021/07/02 08:48:51;;;;;;;0.70;0.70;;;25.80;99.90;;;;;;5043444;28;20203;-71
2021/07/02 08:51:19;;;;;;;0.63;0.63;;;26.10;99.90;;;;;;5048529;28;20229;-71
2021/07/02 08:53:47;;;;;;;0.60;0.60;;;26.10;99.90;;;;;;5043863;28;20677;-71
2021/07/02 08:56:14;;;;;;;0.60;0.60;;;26.10;99.90;;;;;;5046460;28;20233;-71
2021/07/02 08:58:43;;;;;;;1.77;0.80;;;26.40;99.90;;;;;;5046816;28;20394;-71
2021/07/02 09:01:31;;;;;;;1.05;0.90;;;26.60;99.90;;;;;;5044429;28;20218;-71
2021/07/02 09:04:15;;;;;;;0.65;0.65;;;26.70;99.90;;;;;;5044987;28;20223;-71
2021/07/02 09:06:43;;;;;;;0.85;0.70;;;26.70;99.90;;;;;;5049343;28;20321;-75
2021/07/02 09:09:10;;;;;;;1.08;0.65;;;26.50;99.90;;;;;;5044019;28;20210;-73
2021/07/02 09:11:38;;;;;;;0.70;0.70;;;26.50;99.90;;;;;;5044530;28;20249;-75
2021/07/02 09:14:06;;;;;;;0.95;0.82;;;26.80;99.90;;;;;;5044726;28;20218;-74
2021/07/02 09:16:37;;;;;;;0.70;0.70;;;27.00;99.90;;;;;;5041740;28;20235;-74
2021/07/02 09:19:23;;;;;;;1.73;0.77;;;27.00;99.90;;;;;;5046488;28;20199;-72
2021/07/02 09:21:51;;;;;;;0.80;0.80;;;27.00;99.90;;;;;;5039792;28;20222;-73
2021/07/02 09:24:37;;;;;;;2.75;0.70;;;27.00;99.90;;;;;;5043650;28;20249;-73
2021/07/02 09:27:23;;;;;;;0.60;0.60;;;27.00;99.90;;;;;;5039809;28;20264;-74
2021/07/02 09:30:11;;;;;;;0.50;0.50;;;27.20;99.90;;;;;;5041009;28;20207;-73
2021/07/02 09:32:39;;;;;;;1.83;0.80;;;27.30;99.90;;;;;;5036076;28;20216;-74
2021/07/02 09:35:09;;;;;;;0.52;0.50;;;27.40;99.90;;;;;;5037790;28;20219;-73
2021/07/02 09:37:40;;;;;;;0.50;0.50;;;27.50;99.90;;;;;;5043576;28;20219;-74
2021/07/02 09:40:12;;;;;;;0.60;0.60;;;27.70;99.90;;;;;;5042205;28;20200;-74
2021/07/02 09:42:39;;;;;;;0.60;0.60;;;27.80;99.90;;;;;;5039026;28;20217;-74
2021/07/02 09:45:09;;;;;;;0.60;0.60;;;27.90;99.90;;;;;;5045485;28;20239;-74
2021/07/02 09:47:37;;;;;;;0.85;0.77;;;28.00;99.90;;;;;;5039089;28;20226;-74
2021/07/02 09:50:33;;;;;;;0.85;0.65;;;28.10;99.90;;;;;;5042215;28;20203;-73
2021/07/02 09:53:01;;;;;;;1.20;0.70;;;28.20;99.60;;;;;;5010674;28;20235;-74
2021/07/02 09:55:30;;;;;;;1.30;0.70;;;28.20;99.90;;;;;;5039876;28;20318;-73
2021/07/02 09:58:06;;;;;;;0.80;0.80;;;28.20;99.80;;;;;;5039564;28;20223;-74
2021/07/02 10:00:35;;;;;;;0.88;0.63;;;28.30;98.90;;;;;;5043075;28;20217;-74
2021/07/02 10:03:05;;;;;;;0.55;0.55;;;28.20;98.50;;;;;;5039607;28;20698;-75
2021/07/02 10:05:47;;;;;;;0.80;0.80;;;28.20;98.70;;;;;;5040944;28;20257;-74
2021/07/02 10:08:15;;;;;;;0.57;0.57;;;28.40;98.30;;;;;;5044477;28;20377;-74
2021/07/02 10:10:43;;;;;;;0.60;0.60;;;28.50;98.70;;;;;;5041084;28;20194;-74
2021/07/02 10:13:10;;;;;;;0.70;0.70;;;28.50;98.10;;;;;;5046471;28;20225;-76
2021/07/02 10:15:38;;;;;;;0.60;0.60;;;28.40;97.30;;;;;;5039177;28;20222;-75
2021/07/02 10:18:12;;;;;;;1.45;0.60;;;28.50;97.00;;;;;;5041774;28;20764;-74
2021/07/02 10:20:42;;;;;;;0.60;0.60;;;28.40;96.50;;;;;;5042586;28;20226;-73
2021/07/02 10:23:11;;;;;;;0.70;0.70;;;28.40;96.30;;;;;;5048274;28;20218;-75
2021/07/02 10:25:41;;;;;;;0.60;0.60;;;28.60;96.30;;;;;;5041844;28;20245;-73
2021/07/02 10:28:12;;;;;;;1.05;0.70;;;28.80;96.20;;;;;;5041643;28;20226;-74
2021/07/02 10:30:41;;;;;;;0.82;0.60;;;28.90;95.60;;;;;;5042934;28;20210;-73
2021/07/02 10:33:08;;;;;;;0.65;0.60;;;28.80;94.50;;;;;;5040765;28;20284;-72
2021/07/02 10:35:36;;;;;;;0.50;0.50;;;28.80;95.00;;;;;;5042744;28;20611;-73
2021/07/02 10:38:05;;;;;;;0.68;0.68;;;28.90;94.40;;;;;;5028116;28;20222;-76
2021/07/02 10:40:40;;;;;;;0.60;0.60;;;29.10;94.30;;;;;;5043798;28;20202;-74
2021/07/02 10:43:16;;;;;;;1.10;0.77;;;29.30;93.70;;;;;;5041221;28;20222;-75
2021/07/02 10:46:12;;;;;;;0.85;0.70;;;29.50;92.90;;;;;;5041889;28;20723;-73
2021/07/02 10:49:04;;;;;;;1.92;0.73;;;29.50;92.20;;;;;;5041285;28;20681;-73
2021/07/02 10:51:50;;;;;;;0.57;0.57;;;29.40;91.00;;;;;;5030546;28;20198;-74
2021/07/02 10:54:38;;;;;;;0.60;0.60;;;29.40;91.20;;;;;;5040503;28;20221;-73
2021/07/02 10:57:14;;;;;;;0.60;0.60;;;29.30;89.40;;;;;;5041750;28;20240;-74
2021/07/02 11:00:07;;;;;;;1.60;0.55;;;29.40;90.00;;;;;;5039575;28;20223;-74
2021/07/02 11:02:34;;;;;;;0.57;0.57;;;29.50;88.60;;;;;;5043212;28;20248;-74
2021/07/02 11:05:03;;;;;;;0.70;0.70;;;29.60;90.20;;;;;;5038568;28;20312;-73
2021/07/02 11:07:44;;;;;;;0.60;0.60;;;29.70;88.90;;;;;;5038235;28;20651;-73
2021/07/02 11:10:13;;;;;;;0.80;0.80;;;29.70;88.20;;;;;;5040186;28;20223;-74
2021/07/02 11:12:59;;;;;;;0.55;0.55;;;30.00;88.70;;;;;;5039461;28;20206;-72
2021/07/02 11:15:27;;;;;;;0.60;0.60;;;30.00;84.60;;;;;;5037931;28;20218;-75
2021/07/02 11:18:10;;;;;;;0.50;0.50;;;30.10;87.00;;;;;;5037292;28;20207;-71
2021/07/02 11:20:37;;;;;;;0.55;0.55;;;30.40;85.20;;;;;;5041382;28;20215;-71
2021/07/02 11:23:21;;;;;;;0.55;0.55;;;30.50;85.60;;;;;;5045619;28;20324;-72
2021/07/02 11:26:00;;;;;;;1.90;0.55;;;30.70;86.40;;;;;;5043706;28;20227;-74
2021/07/02 11:28:40;;;;;;;0.52;0.52;;;30.80;85.70;;;;;;5041117;28;20202;-73
2021/07/02 11:31:09;;;;;;;0.60;0.60;;;30.70;85.30;;;;;;5045703;28;20634;-74
2021/07/02 11:33:37;;;;;;;0.60;0.60;;;30.80;84.50;;;;;;5044400;28;20213;-74
2021/07/02 11:36:26;;;;;;;2.08;0.73;;;30.70;83.40;;;;;;5048337;28;20892;-74
2021/07/02 11:38:56;;;;;;;0.50;0.50;;;30.70;83.40;;;;;;5047006;28;20199;-75
2021/07/02 11:41:30;;;;;;;0.65;0.60;;;30.60;83.70;;;;;;5042855;28;20242;-74
2021/07/02 11:44:00;;;;;;;0.60;0.60;;;30.70;84.60;;;;;;5041901;28;20226;-73
2021/07/02 11:46:27;;;;;;;0.60;0.60;;;30.70;85.30;;;;;;5044662;28;20202;-75
2021/07/02 11:48:56;;;;;;;0.70;0.70;;;30.80;84.40;;;;;;5042426;28;20195;-74
2021/07/02 11:51:25;;;;;;;0.70;0.70;;;30.70;84.30;;;;;;5040482;28;20294;-73
2021/07/02 11:53:54;;;;;;;1.70;0.70;;;30.70;85.10;;;;;;5042476;28;20233;-73
2021/07/02 11:56:22;;;;;;;0.60;0.60;;;30.90;84.20;;;;;;5043549;28;20206;-74
2021/07/02 11:58:53;;;;;;;0.40;0.40;;;31.00;84.30;;;;;;5021621;28;20195;-74
2021/07/02 12:01:22;;;;;;;0.68;0.68;;;31.10;83.10;;;;;;5041376;28;20218;-74
2021/07/02 12:03:51;;;;;;;0.40;0.40;;;31.10;82.90;;;;;;5035585;28;20199;-74
2021/07/02 12:06:27;;;;;;;0.50;0.50;;;31.30;83.30;;;;;;5039495;28;20736;-75
2021/07/02 12:09:09;;;;;;;0.43;0.43;;;31.70;83.40;;;;;;5044209;28;20206;-73
2021/07/02 12:11:38;;;;;;;0.50;0.50;;;32.00;81.80;;;;;;5043987;28;20195;-75
2021/07/02 12:14:08;;;;;;;0.40;0.40;;;31.80;81.10;;;;;;5041888;28;20307;-75
2021/07/02 12:16:37;;;;;;;0.50;0.40;;;31.40;80.40;;;;;;5044805;28;21086;-75
2021/07/02 12:19:07;;;;;;;0.75;0.50;;;31.30;80.10;;;;;;5043422;28;20203;-74
2021/07/02 12:21:36;;;;;;;0.50;0.50;;;31.30;80.30;;;;;;5038988;28;20222;-74
2021/07/02 12:24:05;;;;;;;0.50;0.50;;;31.30;79.80;;;;;;5042028;28;20305;-76
2021/07/02 12:26:34;;;;;;;0.50;0.40;;;31.50;80.30;;;;;;5040887;28;20214;-74
2021/07/02 12:29:12;;;;;;;1.15;0.55;;;31.80;80.60;;;;;;5035101;28;20200;-73
2021/07/02 12:31:44;;;;;;;0.50;0.50;;;31.80;80.80;;;;;;5038485;28;20218;-74
2021/07/02 12:34:22;;;;;;;0.40;0.40;;;31.80;80.40;;;;;;5041138;28;20234;-73
2021/07/02 12:36:55;;;;;;;0.82;0.65;;;31.70;79.60;;;;;;5037556;28;20450;-72
2021/07/02 12:39:26;;;;;;;0.50;0.50;;;31.70;79.00;;;;;;5041072;28;20222;-74
2021/07/02 12:41:53;;;;;;;0.73;0.70;;;31.40;76.80;;;;;;5036213;28;20505;-72
2021/07/02 12:46:59;;;;;;;1.10;0.55;;;31.50;77.20;;;;;;5035946;28;20245;-77
2021/07/02 12:49:33;;;;;;;0.57;0.45;;;31.80;76.20;;;;;;5044456;28;20227;-77
2021/07/02 12:54:50;;;;;;;0.40;0.40;;;32.20;74.50;;;;;;5016854;28;20216;-75
2021/07/02 12:57:26;;;;;;;0.57;0.55;;;32.00;73.50;;;;;;5026417;28;20207;-77
2021/07/02 12:59:54;;;;;;;0.98;0.60;;;31.70;72.90;;;;;;5016059;28;20567;-77
2021/07/02 13:02:31;;;;;;;2.05;0.60;;;31.70;75.00;;;;;;4995197;28;20216;-77
2021/07/02 13:05:00;;;;;;;0.73;0.70;;;31.70;78.20;;;;;;4998689;28;20634;-76
2021/07/02 13:07:28;;;;;;;0.65;0.65;;;31.70;78.40;;;;;;4998002;28;20224;-77
2021/07/02 13:10:12;;;;;;;0.63;0.60;;;31.70;78.70;;;;;;5000676;28;20235;-77
2021/07/02 13:12:39;;;;;;;0.57;0.57;;;31.30;78.20;;;;;;4998246;28;20677;-76
2021/07/02 13:15:09;;;;;;;0.73;0.73;;;30.70;77.80;;;;;;4996763;28;20238;-75